createdAt,value
2022-09-07T00:00:27.164Z,0.25
2022-09-07T00:01:30.349Z,0.50
2022-09-07T00:02:33.812Z,1.00
2022-09-07T00:03:36.936Z,0.50
2022-09-07T00:04:40.068Z,0.00
2022-09-07T00:05:43.230Z,0.00
2022-09-07T00:06:46.703Z,0.00
2022-09-07T00:07:50.138Z,0.00
2022-09-07T00:08:53.577Z,0.00
2022-09-07T00:09:56.659Z,0.00
2022-09-07T00:10:59.944Z,0.50
2022-09-07T00:12:03.534Z,1.00
2022-09-07T00:13:06.815Z,0.25
2022-09-07T00:14:10.210Z,0.00
2022-09-07T00:15:13.795Z,0.25
2022-09-07T00:16:17.095Z,1.00
2022-09-07T00:17:20.377Z,0.50
2022-09-07T00:18:23.757Z,0.00
2022-09-07T00:19:29.087Z,0.00
2022-09-07T00:20:32.372Z,0.00
2022-09-07T00:21:37.719Z,0.00
2022-09-07T00:22:40.908Z,0.00
2022-09-07T00:23:44.282Z,0.00
2022-09-07T00:24:47.681Z,0.00
2022-09-07T00:25:53.995Z,0.00
2022-09-07T00:26:54.941Z,0.50
2022-09-07T00:27:58.740Z,0.50
2022-09-07T00:29:01.931Z,0.00
2022-09-07T00:30:05.218Z,0.00
2022-09-07T00:31:08.536Z,0.00
2022-09-07T00:32:11.676Z,0.50
2022-09-07T00:33:15.056Z,0.00
2022-09-07T00:34:18.238Z,0.00
2022-09-07T00:35:21.421Z,0.25
2022-09-07T00:36:24.911Z,0.50
2022-09-07T00:37:27.995Z,0.50
2022-09-07T00:38:31.549Z,0.40
2022-09-07T00:39:34.873Z,0.50
2022-09-07T00:40:38.149Z,0.50
2022-09-07T00:41:41.495Z,0.50
2022-09-07T00:42:44.608Z,0.50
2022-09-07T00:43:47.898Z,0.00
2022-09-07T00:44:51.085Z,0.50
2022-09-07T00:45:54.442Z,0.50
2022-09-07T00:46:57.505Z,0.00
2022-09-07T00:48:00.833Z,0.50
2022-09-07T00:49:03.906Z,1.00
2022-09-07T00:50:07.104Z,0.50
2022-09-07T00:51:10.188Z,0.75
2022-09-07T00:52:13.461Z,0.75
2022-09-07T00:53:16.498Z,0.50
2022-09-07T00:54:19.817Z,0.50
2022-09-07T00:55:23.307Z,0.00
2022-09-07T00:56:26.693Z,0.00
2022-09-07T00:57:29.987Z,0.00
2022-09-07T00:58:33.374Z,0.50
2022-09-07T00:59:36.959Z,0.50
2022-09-07T01:00:40.447Z,1.00
2022-09-07T01:01:43.911Z,1.00
2022-09-07T01:02:47.528Z,0.50
2022-09-07T01:03:50.949Z,0.25
2022-09-07T01:04:54.093Z,0.50
2022-09-07T01:05:57.514Z,1.00
2022-09-07T01:07:00.681Z,1.00
2022-09-07T01:08:03.748Z,1.00
2022-09-07T01:09:07.034Z,0.00
2022-09-07T01:10:10.308Z,0.25
2022-09-07T01:11:13.591Z,0.50
2022-09-07T01:12:16.880Z,0.50
2022-09-07T01:13:20.278Z,1.00
2022-09-07T01:14:23.753Z,0.75
2022-09-07T01:15:27.049Z,0.50
2022-09-07T01:16:30.528Z,0.50
2022-09-07T01:17:34.030Z,0.50
2022-09-07T01:18:37.401Z,1.00
2022-09-07T01:19:40.761Z,0.50
2022-09-07T01:20:43.974Z,0.00
2022-09-07T01:21:47.466Z,0.00
2022-09-07T01:22:50.819Z,0.00
2022-09-07T01:23:54.251Z,1.25
2022-09-07T01:24:57.438Z,1.00
2022-09-07T01:26:00.696Z,1.00
2022-09-07T01:27:04.094Z,1.00
2022-09-07T01:28:07.296Z,1.50
2022-09-07T01:29:10.359Z,1.50
2022-09-07T01:30:13.396Z,0.75
2022-09-07T01:31:16.509Z,0.50
2022-09-07T01:32:19.891Z,1.50
2022-09-07T01:33:23.485Z,1.00
2022-09-07T01:34:26.796Z,0.50
2022-09-07T01:35:30.156Z,1.00
2022-09-07T01:36:33.758Z,0.50
2022-09-07T01:37:37.149Z,1.00
2022-09-07T01:38:40.327Z,1.00
2022-09-07T01:39:43.752Z,1.00
2022-09-07T01:40:47.057Z,0.75
2022-09-07T01:41:50.373Z,1.00
2022-09-07T01:42:53.564Z,1.00
2022-09-07T01:43:56.747Z,1.00
2022-09-07T01:44:59.815Z,1.00
2022-09-07T01:46:03.237Z,1.00
2022-09-07T01:47:06.259Z,1.00
2022-09-07T01:48:09.465Z,1.00
2022-09-07T01:49:12.853Z,1.00
2022-09-07T01:50:16.251Z,0.00
2022-09-07T01:51:19.650Z,0.00
2022-09-07T01:52:23.009Z,0.25
2022-09-07T01:53:26.308Z,1.00
2022-09-07T01:54:29.783Z,0.50
2022-09-07T01:55:33.195Z,0.00
2022-09-07T01:56:36.466Z,0.50
2022-09-07T01:57:39.702Z,1.00
2022-09-07T01:58:42.880Z,1.00
2022-09-07T01:59:46.054Z,1.00
2022-09-07T02:00:49.246Z,0.60
2022-09-07T02:01:52.405Z,0.50
2022-09-07T02:02:55.597Z,0.00
2022-09-07T02:03:58.723Z,0.50
2022-09-07T02:05:01.907Z,0.50
2022-09-07T02:06:05.087Z,1.00
2022-09-07T02:07:08.171Z,0.25
2022-09-07T02:08:11.352Z,0.00
2022-09-07T02:09:14.438Z,0.50
2022-09-07T02:10:17.567Z,1.00
2022-09-07T02:11:20.586Z,1.00
2022-09-07T02:12:23.681Z,0.25
2022-09-07T02:13:27.163Z,0.00
2022-09-07T02:14:30.446Z,0.00
2022-09-07T02:15:33.624Z,0.00
2022-09-07T02:16:36.779Z,0.00
2022-09-07T02:17:39.987Z,0.00
2022-09-07T02:18:43.123Z,0.00
2022-09-07T02:19:46.149Z,0.25
2022-09-07T02:20:49.328Z,0.00
2022-09-07T02:21:52.510Z,0.25
2022-09-07T02:22:55.590Z,0.50
2022-09-07T02:23:58.664Z,0.00
2022-09-07T02:25:01.950Z,0.00
2022-09-07T02:26:04.999Z,0.00
2022-09-07T02:27:08.645Z,0.00
2022-09-07T02:28:11.813Z,0.00
2022-09-07T02:29:14.887Z,0.00
2022-09-07T02:30:18.184Z,0.00
2022-09-07T02:31:21.316Z,0.00
2022-09-07T02:32:24.535Z,0.00
2022-09-07T02:33:27.915Z,0.75
2022-09-07T02:34:31.200Z,0.50
2022-09-07T02:35:34.486Z,0.50
2022-09-07T02:36:37.674Z,1.00
2022-09-07T02:37:40.970Z,0.50
2022-09-07T02:38:44.134Z,0.00
2022-09-07T02:39:47.354Z,0.50
2022-09-07T02:40:50.602Z,0.00
2022-09-07T02:41:53.690Z,0.50
2022-09-07T02:42:56.858Z,0.50
2022-09-07T02:44:00.074Z,0.00
2022-09-07T02:45:03.122Z,0.50
2022-09-07T02:46:06.382Z,0.50
2022-09-07T02:47:09.588Z,0.00
2022-09-07T02:48:12.665Z,0.00
2022-09-07T02:49:18.830Z,0.00
2022-09-07T02:50:21.980Z,0.00
2022-09-07T02:51:25.386Z,0.00
2022-09-07T02:52:28.687Z,0.00
2022-09-07T02:53:32.261Z,0.00
2022-09-07T02:54:35.545Z,0.00
2022-09-07T02:55:39.144Z,0.25
2022-09-07T02:56:42.232Z,0.50
2022-09-07T02:57:45.462Z,1.00
2022-09-07T02:58:48.683Z,0.50
2022-09-07T02:59:52.175Z,0.00
2022-09-07T03:00:55.277Z,0.00
2022-09-07T03:01:58.839Z,0.00
2022-09-07T03:03:01.941Z,0.00
2022-09-07T03:04:05.308Z,0.00
2022-09-07T03:05:08.531Z,0.00
2022-09-07T03:06:11.675Z,0.00
2022-09-07T03:07:14.956Z,0.00
2022-09-07T03:08:18.345Z,0.00
2022-09-07T03:09:21.643Z,0.50
2022-09-07T03:10:24.811Z,1.00
2022-09-07T03:11:28.102Z,0.00
2022-09-07T03:12:31.478Z,0.00
2022-09-07T03:13:34.840Z,0.00
2022-09-07T03:14:38.155Z,0.00
2022-09-07T03:15:41.677Z,0.50
2022-09-07T03:16:45.084Z,0.50
2022-09-07T03:17:48.412Z,0.00
2022-09-07T03:18:51.704Z,0.00
2022-09-07T03:19:55.191Z,0.00
2022-09-07T03:20:58.371Z,0.00
2022-09-07T03:22:01.858Z,0.50
2022-09-07T03:23:04.926Z,0.00
2022-09-07T03:24:08.136Z,0.00
2022-09-07T03:25:11.298Z,0.00
2022-09-07T03:26:14.481Z,0.00
2022-09-07T03:27:17.780Z,0.00
2022-09-07T03:28:21.258Z,0.00
2022-09-07T03:29:24.750Z,0.00
2022-09-07T03:30:28.235Z,1.00
2022-09-07T03:31:31.731Z,0.50
2022-09-07T03:32:35.109Z,0.00
2022-09-07T03:33:38.460Z,0.00
2022-09-07T03:34:41.781Z,0.00
2022-09-07T03:35:45.157Z,0.00
2022-09-07T03:36:48.769Z,0.00
2022-09-07T03:37:51.934Z,0.00
2022-09-07T03:38:55.221Z,0.00
2022-09-07T03:39:58.753Z,0.00
2022-09-07T03:41:02.000Z,0.00
2022-09-07T03:42:05.510Z,0.00
2022-09-07T03:43:08.568Z,0.00
2022-09-07T03:44:11.951Z,0.00
2022-09-07T03:45:15.031Z,0.00
2022-09-07T03:46:18.323Z,0.00
2022-09-07T03:47:21.503Z,0.00
2022-09-07T03:48:24.632Z,0.00
2022-09-07T03:49:27.861Z,0.00
2022-09-07T03:50:31.141Z,0.00
2022-09-07T03:51:34.325Z,0.50
2022-09-07T03:52:37.619Z,0.50
2022-09-07T03:53:40.804Z,0.50
2022-09-07T03:54:43.980Z,0.00
2022-09-07T03:55:47.024Z,0.00
2022-09-07T03:56:50.237Z,0.00
2022-09-07T03:57:53.523Z,0.00
2022-09-07T03:58:56.907Z,0.00
2022-09-07T03:59:59.948Z,0.00
2022-09-07T04:01:03.021Z,0.00
2022-09-07T04:02:06.104Z,0.00
2022-09-07T04:03:09.287Z,0.00
2022-09-07T04:04:12.408Z,0.00
2022-09-07T04:05:15.586Z,0.00
2022-09-07T04:06:18.779Z,0.00
2022-09-07T04:07:22.165Z,0.00
2022-09-07T04:08:25.379Z,0.00
2022-09-07T04:09:28.727Z,0.00
2022-09-07T04:10:32.007Z,0.00
2022-09-07T04:11:35.262Z,0.00
2022-09-07T04:12:38.588Z,0.00
2022-09-07T04:13:41.821Z,0.00
2022-09-07T04:14:44.943Z,0.50
2022-09-07T04:15:50.977Z,0.00
2022-09-07T04:16:52.539Z,0.00
2022-09-07T04:17:55.719Z,0.00
2022-09-07T04:18:58.905Z,0.00
2022-09-07T04:20:02.198Z,0.00
2022-09-07T04:21:05.370Z,0.25
2022-09-07T04:22:08.647Z,0.00
2022-09-07T04:23:11.731Z,0.00
2022-09-07T04:24:15.007Z,0.00
2022-09-07T04:25:18.296Z,0.00
2022-09-07T04:26:21.475Z,0.00
2022-09-07T04:27:24.787Z,0.00
2022-09-07T04:28:28.050Z,0.00
2022-09-07T04:29:31.327Z,0.00
2022-09-07T04:30:34.566Z,0.00
2022-09-07T04:31:37.713Z,0.00
2022-09-07T04:32:40.879Z,0.00
2022-09-07T04:33:43.965Z,0.00
2022-09-07T04:34:47.039Z,0.00
2022-09-07T04:35:50.227Z,0.00
2022-09-07T04:36:53.402Z,0.00
2022-09-07T04:37:56.584Z,0.00
2022-09-07T04:38:59.697Z,0.00
2022-09-07T04:40:02.927Z,0.50
2022-09-07T04:41:06.064Z,0.50
2022-09-07T04:42:09.282Z,0.00
2022-09-07T04:43:12.497Z,0.00
2022-09-07T04:44:17.055Z,0.00
2022-09-07T04:45:20.212Z,0.00
2022-09-07T04:46:23.324Z,0.00
2022-09-07T04:47:26.762Z,0.00
2022-09-07T04:48:30.336Z,0.00
2022-09-07T04:49:34.066Z,0.00
2022-09-07T04:50:37.528Z,0.00
2022-09-07T04:51:40.918Z,0.00
2022-09-07T04:52:44.416Z,0.00
2022-09-07T04:53:47.786Z,0.00
2022-09-07T04:54:51.092Z,0.00
2022-09-07T04:55:54.369Z,0.00
2022-09-07T04:56:57.641Z,0.00
2022-09-07T04:58:01.061Z,0.00
2022-09-07T04:59:04.059Z,0.00
2022-09-07T05:00:07.411Z,0.00
2022-09-07T05:01:10.667Z,0.00
2022-09-07T05:02:13.807Z,0.00
2022-09-07T05:03:16.944Z,0.00
2022-09-07T05:04:20.407Z,0.00
2022-09-07T05:05:23.723Z,0.00
2022-09-07T05:06:27.208Z,0.00
2022-09-07T05:07:30.577Z,0.00
2022-09-07T05:08:33.975Z,0.00
2022-09-07T05:09:37.401Z,0.00
2022-09-07T05:10:40.732Z,0.00
2022-09-07T05:11:44.139Z,0.00
2022-09-07T05:12:47.628Z,0.00
2022-09-07T05:13:51.331Z,0.00
2022-09-07T05:14:54.814Z,0.00
2022-09-07T05:15:58.399Z,0.00
2022-09-07T05:17:01.606Z,0.00
2022-09-07T05:18:04.841Z,0.50
2022-09-07T05:19:08.256Z,0.00
2022-09-07T05:20:11.750Z,0.00
2022-09-07T05:21:14.915Z,0.00
2022-09-07T05:22:18.011Z,0.00
2022-09-07T05:23:21.611Z,0.50
2022-09-07T05:24:24.880Z,0.50
2022-09-07T05:25:28.165Z,0.00
2022-09-07T05:26:31.360Z,0.00
2022-09-07T05:27:34.455Z,0.00
2022-09-07T05:28:37.511Z,0.00
2022-09-07T05:31:49.225Z,0.50
2022-09-07T05:32:52.375Z,0.50
2022-09-07T05:35:00.107Z,0.00
2022-09-07T05:36:03.245Z,0.00
2022-09-07T05:37:06.334Z,0.00
2022-09-07T05:38:09.416Z,0.00
2022-09-07T05:39:12.700Z,0.00
2022-09-07T05:40:15.924Z,0.00
2022-09-07T05:41:19.370Z,0.00
2022-09-07T05:42:22.680Z,0.00
2022-09-07T05:43:25.957Z,0.00
2022-09-07T05:44:44.734Z,0.00
2022-09-07T05:45:33.454Z,0.00
2022-09-07T05:46:36.834Z,0.00
2022-09-07T05:47:40.310Z,0.00
2022-09-07T05:48:43.560Z,0.50
2022-09-07T05:49:46.802Z,1.00
2022-09-07T05:50:50.077Z,0.50
2022-09-07T05:51:53.352Z,0.00
2022-09-07T05:52:56.729Z,0.00
2022-09-07T05:53:59.913Z,0.00
2022-09-07T05:55:26.193Z,0.00
2022-09-07T05:56:07.499Z,0.00
2022-09-07T05:57:10.681Z,0.00
2022-09-07T05:58:13.887Z,0.00
2022-09-07T05:59:17.169Z,0.00
2022-09-07T06:00:20.327Z,0.00
2022-09-07T06:01:23.546Z,0.00
2022-09-07T06:02:27.085Z,0.00
2022-09-07T06:03:30.384Z,0.50
2022-09-07T06:04:33.483Z,0.25
2022-09-07T06:05:36.656Z,0.50
2022-09-07T06:06:39.939Z,0.50
2022-09-07T06:07:43.238Z,0.00
2022-09-07T06:08:46.426Z,0.00
2022-09-07T06:10:53.798Z,0.00
2022-09-07T06:11:56.882Z,0.00
2022-09-07T06:12:59.930Z,0.00
2022-09-07T06:14:03.037Z,0.00
2022-09-07T06:15:06.210Z,0.00
2022-09-07T06:16:09.402Z,0.00
2022-09-07T06:17:12.703Z,0.00
2022-09-07T06:18:15.766Z,0.00
2022-09-07T06:19:18.845Z,0.00
2022-09-07T06:20:22.024Z,0.00
2022-09-07T06:21:25.278Z,0.00
2022-09-07T06:22:31.034Z,0.00
2022-09-07T06:23:32.748Z,0.00
2022-09-07T06:24:36.090Z,0.00
2022-09-07T06:25:39.298Z,0.00
2022-09-07T06:26:42.546Z,0.00
2022-09-07T06:27:45.929Z,0.00
2022-09-07T06:28:49.827Z,0.00
2022-09-07T06:29:53.937Z,0.00
2022-09-07T06:30:57.223Z,0.00
2022-09-07T06:33:04.494Z,0.00
2022-09-07T06:34:08.096Z,0.00
2022-09-07T06:35:11.594Z,0.00
2022-09-07T06:36:14.977Z,0.00
2022-09-07T06:37:18.151Z,0.50
2022-09-07T06:38:21.605Z,0.50
2022-09-07T06:39:24.939Z,0.00
2022-09-07T06:40:27.999Z,0.00
2022-09-07T06:42:40.685Z,0.50
2022-09-07T06:43:46.013Z,1.00
2022-09-07T06:44:48.315Z,0.50
2022-09-07T06:45:51.739Z,0.50
2022-09-07T06:47:59.188Z,0.50
2022-09-07T06:49:02.159Z,0.00
2022-09-07T06:50:05.700Z,0.00
2022-09-07T06:51:08.830Z,0.00
2022-09-07T06:52:12.015Z,0.00
2022-09-07T06:55:24.342Z,0.00
2022-09-07T06:56:27.621Z,0.50
2022-09-07T06:57:30.766Z,0.50
2022-09-07T06:58:34.076Z,0.00
2022-09-07T06:59:37.331Z,0.00
2022-09-07T07:00:40.578Z,0.00
2022-09-07T07:01:44.952Z,0.00
2022-09-07T07:02:48.090Z,0.00
2022-09-07T07:03:51.222Z,0.00
2022-09-07T07:04:54.509Z,0.00
2022-09-07T07:05:58.093Z,0.00
2022-09-07T07:07:01.268Z,0.00
2022-09-07T07:08:04.560Z,0.00
2022-09-07T07:09:07.771Z,0.50
2022-09-07T07:10:10.940Z,0.50
2022-09-07T07:11:14.494Z,0.50
2022-09-07T07:14:18.632Z,0.00
2022-09-07T07:15:22.128Z,0.00
2022-09-07T07:16:25.629Z,0.00
2022-09-07T07:17:28.990Z,0.50
2022-09-07T07:18:32.470Z,0.50
2022-09-07T07:19:35.980Z,0.00
2022-09-07T07:20:41.209Z,0.00
2022-09-07T07:22:07.897Z,0.00
2022-09-07T07:22:49.004Z,0.50
2022-09-07T07:23:52.202Z,0.50
2022-09-07T07:24:55.469Z,0.50
2022-09-07T07:25:58.875Z,0.00
2022-09-07T07:27:02.244Z,0.00
2022-09-07T07:29:10.050Z,0.00
2022-09-07T07:30:13.464Z,0.00
2022-09-07T07:31:18.045Z,0.50
2022-09-07T07:32:21.232Z,0.00
2022-09-07T07:33:24.320Z,0.50
2022-09-07T07:34:27.830Z,1.00
2022-09-07T07:35:31.182Z,0.50
2022-09-07T07:36:34.782Z,0.50
2022-09-07T07:37:38.144Z,0.50
2022-09-07T07:41:57.496Z,0.50
2022-09-07T07:42:59.590Z,0.00
2022-09-07T07:44:02.777Z,0.00
2022-09-07T07:46:11.848Z,1.00
2022-09-07T07:47:15.809Z,0.50
2022-09-07T07:49:28.318Z,0.00
2022-09-07T07:50:32.598Z,0.50
2022-09-07T07:53:44.824Z,0.50
2022-09-07T07:54:48.209Z,0.00
2022-09-07T07:55:51.503Z,0.00
2022-09-07T07:56:54.880Z,0.50
2022-09-07T07:58:00.628Z,0.50
2022-09-07T07:59:04.054Z,0.50
2022-09-07T08:00:07.788Z,0.50
2022-09-07T08:01:12.153Z,0.75
2022-09-07T08:02:16.773Z,0.00
2022-09-07T08:03:19.908Z,0.50
2022-09-07T08:04:23.607Z,1.00
2022-09-07T08:05:26.937Z,1.00
2022-09-07T08:06:30.089Z,1.00
2022-09-07T08:07:33.455Z,1.00
2022-09-07T08:08:42.339Z,0.00
2022-09-07T08:09:46.083Z,0.50
2022-09-07T08:10:49.458Z,1.00
2022-09-07T08:11:52.958Z,0.00
2022-09-07T08:12:56.367Z,0.00
2022-09-07T08:13:59.413Z,0.25
2022-09-07T08:15:02.696Z,0.00
2022-09-07T08:16:11.998Z,0.50
2022-09-07T08:17:16.132Z,0.50
2022-09-07T08:18:19.524Z,0.00
2022-09-07T08:19:22.848Z,1.50
2022-09-07T08:20:27.407Z,1.00
2022-09-07T08:21:32.543Z,0.00
2022-09-07T08:22:46.271Z,1.00
2022-09-07T08:23:49.461Z,0.50
2022-09-07T08:24:55.303Z,0.50
2022-09-07T08:25:58.608Z,1.00
2022-09-07T08:27:01.858Z,1.25
2022-09-07T08:28:06.765Z,0.50
2022-09-07T08:29:11.477Z,0.00
2022-09-07T08:30:16.635Z,0.00
2022-09-07T08:31:19.738Z,0.50
2022-09-07T08:32:23.093Z,0.75
2022-09-07T08:33:26.157Z,0.40
2022-09-07T08:34:32.549Z,1.00
2022-09-07T08:35:38.542Z,0.00
2022-09-07T08:36:41.353Z,1.00
2022-09-07T08:37:45.611Z,0.00
2022-09-07T08:38:49.159Z,0.25
2022-09-07T08:39:52.577Z,1.00
2022-09-07T08:40:55.643Z,1.00
2022-09-07T08:41:58.795Z,1.00
2022-09-07T08:43:03.068Z,0.50
2022-09-07T08:44:06.399Z,0.00
2022-09-07T08:45:10.496Z,0.50
2022-09-07T08:46:13.819Z,0.50
2022-09-07T08:47:17.065Z,0.00
2022-09-07T08:48:20.251Z,0.00
2022-09-07T08:49:23.855Z,0.00
2022-09-07T08:50:27.270Z,0.00
2022-09-07T08:51:31.634Z,0.00
2022-09-07T08:52:38.504Z,0.00
2022-09-07T08:53:43.745Z,0.25
2022-09-07T08:54:47.324Z,0.50
2022-09-07T08:55:55.944Z,0.50
2022-09-07T08:58:32.301Z,1.00
2022-09-07T08:59:28.619Z,1.50
2022-09-07T09:00:31.906Z,1.00
2022-09-07T09:01:39.528Z,1.50
2022-09-07T09:02:44.562Z,1.50
2022-09-07T09:06:02.767Z,2.00
2022-09-07T09:07:07.392Z,2.00
2022-09-07T09:08:14.769Z,0.50
2022-09-07T09:09:19.664Z,0.75
2022-09-07T09:10:23.686Z,1.00
2022-09-07T09:11:29.317Z,1.00
2022-09-07T09:12:36.883Z,0.50
2022-09-07T09:13:41.495Z,1.00
2022-09-07T09:14:47.755Z,1.50
2022-09-07T09:15:53.825Z,2.50
2022-09-07T09:16:57.207Z,2.75
2022-09-07T09:18:02.026Z,1.50
2022-09-07T09:19:10.133Z,1.50
2022-09-07T09:20:18.555Z,1.50
2022-09-07T09:21:21.816Z,1.50
2022-09-07T09:22:25.210Z,0.50
2022-09-07T09:23:28.794Z,0.50
2022-09-07T09:24:38.187Z,1.00
2022-09-07T09:25:41.309Z,0.50
2022-09-07T09:26:46.710Z,0.50
2022-09-07T09:27:54.630Z,1.00
2022-09-07T09:28:58.021Z,0.50
2022-09-07T09:30:01.507Z,1.50
2022-09-07T09:31:07.923Z,2.00
2022-09-07T09:32:13.196Z,1.50
2022-09-07T09:33:17.602Z,1.00
2022-09-07T09:34:28.614Z,1.00
2022-09-07T09:35:29.277Z,1.00
2022-09-07T09:36:33.859Z,1.00
2022-09-07T09:37:36.888Z,0.50
2022-09-07T09:38:39.895Z,0.00
2022-09-07T09:39:43.174Z,0.50
2022-09-07T09:40:46.229Z,1.00
2022-09-07T09:41:49.522Z,1.00
2022-09-07T09:43:04.159Z,0.75
2022-09-07T09:44:13.248Z,0.50
2022-09-07T09:45:16.574Z,0.00
2022-09-07T09:46:19.818Z,0.50
2022-09-07T09:47:30.747Z,0.00
2022-09-07T09:48:33.091Z,0.00
2022-09-07T09:49:41.485Z,0.50
2022-09-07T09:52:56.965Z,0.50
2022-09-07T09:54:04.973Z,0.00
2022-09-07T09:55:32.735Z,0.50
2022-09-07T09:56:12.155Z,0.50
2022-09-07T09:57:19.326Z,1.00
2022-09-07T10:00:35.073Z,0.25
2022-09-07T10:05:01.255Z,0.00
2022-09-07T10:06:04.446Z,0.50
2022-09-07T10:07:13.310Z,0.00
2022-09-07T10:08:16.226Z,0.25
2022-09-07T10:09:19.108Z,0.60
2022-09-07T10:10:22.420Z,0.00
2022-09-07T10:12:05.095Z,0.50
2022-09-07T10:12:30.290Z,0.50
2022-09-07T10:13:33.474Z,0.00
2022-09-07T10:14:39.241Z,0.00
2022-09-07T10:15:42.549Z,0.50
2022-09-07T10:16:47.402Z,0.50
2022-09-07T10:17:51.681Z,0.50
2022-09-07T10:18:54.808Z,0.50
2022-09-07T10:19:58.183Z,0.60
2022-09-07T10:21:01.282Z,0.50
2022-09-07T10:23:25.253Z,0.50
2022-09-07T10:24:29.673Z,0.00
2022-09-07T10:25:35.975Z,0.50
2022-09-07T10:26:42.225Z,0.75
2022-09-07T10:27:57.126Z,1.00
2022-09-07T10:29:07.445Z,0.25
2022-09-07T10:30:07.013Z,0.50
2022-09-07T10:31:14.568Z,0.50
2022-09-07T10:32:14.047Z,1.00
2022-09-07T10:33:18.212Z,0.50
2022-09-07T10:34:27.937Z,0.50
2022-09-07T10:35:30.260Z,0.75
2022-09-07T10:36:35.886Z,0.75
2022-09-07T10:37:38.970Z,0.50
2022-09-07T10:38:42.262Z,0.50
2022-09-07T10:39:45.409Z,0.00
2022-09-07T10:40:48.615Z,0.50
2022-09-07T10:41:54.073Z,1.00
2022-09-07T10:44:04.097Z,0.00
2022-09-07T10:45:07.081Z,0.00
2022-09-07T10:46:11.895Z,1.00
2022-09-07T10:47:16.778Z,1.00
2022-09-07T10:48:25.338Z,0.50
2022-09-07T10:49:35.627Z,1.00
2022-09-07T10:50:40.050Z,1.00
2022-09-07T10:51:42.947Z,0.50
2022-09-07T10:52:52.128Z,0.00
2022-09-07T10:55:15.951Z,0.00
2022-09-07T10:56:19.251Z,0.50
2022-09-07T10:57:22.716Z,0.00
2022-09-07T11:00:50.796Z,0.00
2022-09-07T11:01:56.483Z,0.50
2022-09-07T11:04:05.402Z,0.50
2022-09-07T11:05:10.756Z,1.00
2022-09-07T11:06:29.643Z,0.00
2022-09-07T11:07:33.152Z,1.00
2022-09-07T11:09:43.697Z,0.00
2022-09-07T11:10:46.976Z,0.00
2022-09-07T11:12:08.206Z,0.00
2022-09-07T11:13:05.638Z,0.00
2022-09-07T11:14:13.414Z,0.00
2022-09-07T11:15:14.252Z,0.00
2022-09-07T11:17:28.757Z,0.50
2022-09-07T11:18:33.924Z,0.25
2022-09-07T11:19:37.524Z,0.00
2022-09-07T11:22:04.329Z,0.00
2022-09-07T11:23:19.114Z,0.00
2022-09-07T11:24:27.829Z,0.00
2022-09-07T11:25:31.168Z,0.00
2022-09-07T11:26:41.786Z,0.00
2022-09-07T11:27:49.769Z,0.00
2022-09-07T11:30:03.707Z,0.00
2022-09-07T11:31:10.420Z,0.00
2022-09-07T11:32:13.655Z,0.00
2022-09-07T11:33:16.836Z,0.00
2022-09-07T11:34:27.026Z,0.00
2022-09-07T11:35:24.523Z,0.00
2022-09-07T11:36:27.817Z,0.00
2022-09-07T11:37:31.405Z,0.00
2022-09-07T11:38:41.224Z,0.25
2022-09-07T11:39:44.084Z,0.50
2022-09-07T11:40:53.649Z,1.00
2022-09-07T11:41:56.935Z,1.00
2022-09-07T11:43:02.266Z,0.50
2022-09-07T11:44:05.549Z,0.50
2022-09-07T11:45:08.834Z,1.00
2022-09-07T11:46:12.152Z,0.50
2022-09-07T11:47:15.509Z,0.00
2022-09-07T11:48:19.482Z,0.50
2022-09-07T11:49:23.308Z,0.50
2022-09-07T11:50:26.792Z,0.75
2022-09-07T11:51:32.737Z,1.00
2022-09-07T11:52:38.670Z,0.50
2022-09-07T11:53:43.325Z,0.00
2022-09-07T11:54:46.871Z,0.50
2022-09-07T11:56:02.383Z,0.00
2022-09-07T11:57:07.839Z,0.25
2022-09-07T11:58:12.912Z,1.00
2022-09-07T11:59:15.702Z,1.00
2022-09-07T12:00:21.205Z,0.00
2022-09-07T12:01:28.206Z,0.50
2022-09-07T12:02:48.661Z,0.50
2022-09-07T12:03:36.765Z,0.50
2022-09-07T12:04:42.579Z,0.50
2022-09-07T12:05:46.164Z,1.00
2022-09-07T12:06:50.047Z,0.25
2022-09-07T12:07:56.930Z,0.00
2022-09-07T12:09:00.361Z,0.00
2022-09-07T12:10:14.063Z,0.50
2022-09-07T12:11:23.036Z,0.50
2022-09-07T12:12:45.075Z,1.00
2022-09-07T12:13:48.167Z,2.00
2022-09-07T12:14:51.506Z,0.50
2022-09-07T12:15:55.074Z,0.50
2022-09-07T12:16:58.527Z,1.00
2022-09-07T12:18:02.321Z,1.00
2022-09-07T12:19:06.632Z,0.50
2022-09-07T12:20:11.920Z,1.25
2022-09-07T12:21:16.328Z,0.75
2022-09-07T12:22:19.768Z,0.50
2022-09-07T12:23:24.928Z,0.50
2022-09-07T12:24:30.431Z,1.00
2022-09-07T12:25:39.439Z,1.00
2022-09-07T12:26:42.623Z,0.50
2022-09-07T12:27:45.905Z,0.00
2022-09-07T12:28:48.966Z,0.50
2022-09-07T12:29:52.167Z,1.00
2022-09-07T12:31:00.997Z,0.50
2022-09-07T12:32:53.423Z,0.00
2022-09-07T12:33:11.027Z,0.00
2022-09-07T12:34:27.623Z,0.00
2022-09-07T12:36:53.588Z,0.50
2022-09-07T12:38:02.519Z,0.50
2022-09-07T12:39:05.859Z,0.00
2022-09-07T12:40:11.034Z,0.00
2022-09-07T12:41:18.390Z,0.00
2022-09-07T12:42:37.516Z,0.00
2022-09-07T12:43:30.717Z,0.00
2022-09-07T12:44:34.992Z,0.50
2022-09-07T12:45:39.687Z,1.00
2022-09-07T12:46:43.335Z,0.75
2022-09-07T12:47:51.986Z,0.50
2022-09-07T12:48:55.272Z,0.50
2022-09-07T12:49:58.879Z,0.50
2022-09-07T12:51:02.462Z,0.00
2022-09-07T12:52:14.922Z,0.50
2022-09-07T12:53:10.049Z,0.50
2022-09-07T12:54:13.333Z,0.00
2022-09-07T12:55:28.101Z,0.75
2022-09-07T12:56:20.846Z,0.50
2022-09-07T12:57:30.852Z,0.50
2022-09-07T12:58:28.868Z,0.50
2022-09-07T12:59:32.671Z,0.75
2022-09-07T13:00:36.238Z,0.75
2022-09-07T13:01:41.916Z,0.50
2022-09-07T13:02:45.531Z,0.25
2022-09-07T13:03:50.254Z,0.00
2022-09-07T13:04:53.648Z,1.50
2022-09-07T13:06:02.858Z,1.00
2022-09-07T13:07:07.799Z,0.50
2022-09-07T13:08:11.050Z,0.00
2022-09-07T13:09:14.216Z,0.50
2022-09-07T13:10:17.343Z,0.50
2022-09-07T13:11:20.728Z,0.00
2022-09-07T13:14:34.495Z,1.00
2022-09-07T13:15:37.713Z,0.50
2022-09-07T13:17:47.040Z,1.00
2022-09-07T13:18:53.422Z,1.00
2022-09-07T13:19:58.053Z,0.50
2022-09-07T13:21:01.042Z,0.00
2022-09-07T13:22:04.841Z,0.25
2022-09-07T13:23:08.356Z,0.50
2022-09-07T13:25:19.913Z,0.50
2022-09-07T13:26:29.313Z,0.50
2022-09-07T13:27:32.519Z,0.50
2022-09-07T13:28:37.131Z,0.50
2022-09-07T13:29:40.825Z,0.00
2022-09-07T13:30:44.679Z,0.00
2022-09-07T13:31:48.527Z,0.50
2022-09-07T13:33:56.840Z,1.00
2022-09-07T13:35:00.627Z,0.75
2022-09-07T13:36:04.016Z,1.00
2022-09-07T13:37:06.897Z,0.00
2022-09-07T13:38:10.774Z,0.00
2022-09-07T13:39:14.174Z,0.50
2022-09-07T13:40:17.560Z,0.00
2022-09-07T13:41:20.946Z,0.00
2022-09-07T13:42:24.433Z,0.75
2022-09-07T13:43:28.368Z,0.50
2022-09-07T13:44:32.134Z,0.50
2022-09-07T13:45:35.832Z,0.00
2022-09-07T13:46:40.446Z,0.50
2022-09-07T13:47:44.569Z,1.00
2022-09-07T13:48:47.929Z,0.50
2022-09-07T13:49:55.586Z,0.00
2022-09-07T13:50:56.033Z,0.00
2022-09-07T13:52:00.143Z,0.50
2022-09-07T13:53:03.524Z,0.50
2022-09-07T13:54:07.531Z,1.00
2022-09-07T13:55:10.911Z,0.50
2022-09-07T13:56:14.503Z,0.00
2022-09-07T13:57:18.319Z,1.00
2022-09-07T13:58:21.786Z,1.50
2022-09-07T13:59:25.375Z,0.75
2022-09-07T14:00:28.969Z,0.00
2022-09-07T14:01:32.431Z,0.50
2022-09-07T14:02:35.902Z,1.00
2022-09-07T14:03:39.235Z,1.00
2022-09-07T14:04:43.126Z,0.50
2022-09-07T14:05:46.408Z,0.50
2022-09-07T14:06:49.703Z,0.75
2022-09-07T14:07:53.392Z,0.00
2022-09-07T14:08:56.486Z,0.50
2022-09-07T14:10:00.270Z,1.00
2022-09-07T14:11:03.657Z,0.75
2022-09-07T14:12:07.249Z,1.00
2022-09-07T14:13:10.527Z,1.00
2022-09-07T14:14:13.842Z,0.40
2022-09-07T14:15:17.205Z,1.00
2022-09-07T14:16:20.867Z,1.00
2022-09-07T14:17:24.308Z,0.50
2022-09-07T14:18:27.464Z,0.50
2022-09-07T14:19:31.265Z,0.50
2022-09-07T14:20:34.859Z,1.00
2022-09-07T14:21:38.443Z,0.50
2022-09-07T14:22:41.931Z,0.25
2022-09-07T14:23:45.832Z,1.00
2022-09-07T14:24:49.442Z,2.00
2022-09-07T14:26:57.524Z,1.00
2022-09-07T14:28:01.138Z,1.00
2022-09-07T14:29:04.913Z,0.00
2022-09-07T14:30:08.100Z,0.25
2022-09-07T14:31:11.698Z,0.50
2022-09-07T14:32:14.768Z,0.75
2022-09-07T14:33:18.259Z,1.50
2022-09-07T14:34:21.858Z,1.75
2022-09-07T14:35:25.551Z,1.50
2022-09-07T14:36:46.161Z,1.25
2022-09-07T14:37:33.448Z,1.00
2022-09-07T14:39:41.794Z,1.00
2022-09-07T14:40:45.959Z,1.00
2022-09-07T14:41:49.764Z,1.50
2022-09-07T14:42:53.443Z,1.50
2022-09-07T14:43:57.033Z,0.75
2022-09-07T14:45:00.525Z,1.00
2022-09-07T14:46:03.834Z,1.00
2022-09-07T14:47:07.615Z,1.00
2022-09-07T14:48:16.370Z,1.50
2022-09-07T14:49:19.427Z,1.50
2022-09-07T14:50:22.578Z,1.00
2022-09-07T14:51:35.212Z,1.00
2022-09-07T14:52:31.069Z,1.50
2022-09-07T14:53:35.326Z,1.50
2022-09-07T14:54:39.015Z,0.00
2022-09-07T14:55:42.485Z,0.00
2022-09-07T14:56:46.277Z,1.50
2022-09-07T14:57:49.975Z,2.00
2022-09-07T14:58:53.769Z,2.00
2022-09-07T14:59:57.561Z,1.25
2022-09-07T15:02:05.576Z,0.75
2022-09-07T15:03:09.211Z,0.50
2022-09-07T15:04:13.193Z,1.00
2022-09-07T15:05:17.914Z,1.00